Inman, KS (67546)

2:04 AM CDT on March 30, 2015 (GMT -0500)
Spyglass | Change Station
CLOSE
Current Station
Personal Weather Station
Location: Hutchinson, KS
Elevation: 1634 ft
Nearby Weather Stations

Elev 1634 ft 38.10 °N, 97.85 °W | Updated 4 minutes ago

Clear
Clear
47.2 °F
Feels Like 47 °F
N
0.0
Wind Variable Wind from North
Gusts 0.0 mph

Today
High -- | Low -- °F
--% Chance of Precip.
Yesterday
High -- | Low -- °F
Precip. -- in
7:19 AM 7:52 PM
Waxing Gibbous, 77% visible
Pressure 30.17 in
Visibility 10.0 miles
Clouds Clear
Windchill 47 °F
Dew Point 32 °F
Humidity 55%
Rainfall 0.00 in
Snow Depth Not available.
UV 0 out of 12
Pollen 9.40 out of 12
Air Quality Not available.
Flu Activity Local Activity
METAR KHUT 300652Z AUTO 09003KT 10SM CLR 05/M02 A3020 RMK AO2 SLP215 T00501022 $

More Conditions Fewer Conditions

Pressure 30.17 in
Visibility 10.0 miles
Clouds Clear
Windchill 47 °F
Dew Point 32 °F
Humidity 55%
Rainfall 0.00 in
Snow Depth Not available.
UV 0 out of 12
Pollen 9.40 out of 12
Air Quality Not available.
Flu Activity Local Activity
METAR KHUT 300652Z AUTO 09003KT 10SM CLR 05/M02 A3020 RMK AO2 SLP215 T00501022 $

More Conditions Fewer Conditions

10-Day Weather Forecast

Almanac

Astronomy

Mar. 30, 2015 Rise Set
Actual Time 7:19 AM CDT 7:52 PM CDT
Civil Twilight 6:52 AM CDT 8:18 PM CDT
Nautical Twilight 6:21 AM CDT 8:50 PM CDT
Astronomical Twilight 5:49 AM CDT 9:22 PM CDT
Moon 3:46 PM CDT 4:40 AM CDT
Length of Visible Light 13h 25m
Length of Day
12h 32m
Tomorrow will be 2m 27s longer.
Waxing Gibbous, 77% of the Moon is Illuminated
Today
Waxing Gibbous
Apr 4
Full
Apr 11
Last Quarter
Apr 18
New
Apr 25
First Quarter

Today's Extremes

State Highs State Lows

Community

WunderPhotos

Upload Photos

1,809,449 photos uploaded!

WunderBlogs® & News

Nearby

Snow Depth

Station Depth Elevation
No new snow has been reported.

Earthquake Activity

City Distance Mag. Time & Date
Perry, Oklahoma 135 miles 2.8 6:03 PM CDT
2015-03-28
Perry, Oklahoma 135 miles 2.8 4:40 PM CDT
2015-03-28
Medford, Oklahoma 109 miles 2.8 4:25 PM CDT
2015-03-28
Enid, Oklahoma 114 miles 2.8 2:59 PM CDT
2015-03-28
Minimum magnitude displayed is 2.5.

Coastal Water Temperatures

Place Temperature
No Stations Reporting

Nearby Weather Stations